sensor_id;sensor_type;location;lat;lon;timestamp;P1;durP1;ratioP1;P2;durP2;ratioP2
9950;SDS011;24074;49.254;6.702;2023-07-13T00:01:15;2.90;;;2.10;;
9950;SDS011;24074;49.254;6.702;2023-07-13T00:03:41;3.63;;;2.10;;
9950;SDS011;24074;49.254;6.702;2023-07-13T00:06:07;3.40;;;2.30;;
9950;SDS011;24074;49.254;6.702;2023-07-13T00:08:33;4.27;;;2.23;;
9950;SDS011;24074;49.254;6.702;2023-07-13T00:11:00;4.07;;;2.10;;
9950;SDS011;24074;49.254;6.702;2023-07-13T00:13:27;3.27;;;2.30;;
9950;SDS011;24074;49.254;6.702;2023-07-13T00:15:54;3.37;;;2.27;;
9950;SDS011;24074;49.254;6.702;2023-07-13T00:18:21;2.70;;;2.20;;
9950;SDS011;24074;49.254;6.702;2023-07-13T00:20:46;4.20;;;2.60;;
9950;SDS011;24074;49.254;6.702;2023-07-13T00:23:12;3.13;;;2.30;;
9950;SDS011;24074;49.254;6.702;2023-07-13T00:25:38;4.17;;;2.50;;
9950;SDS011;24074;49.254;6.702;2023-07-13T00:28:04;2.87;;;2.40;;
9950;SDS011;24074;49.254;6.702;2023-07-13T00:30:29;4.43;;;2.60;;
9950;SDS011;24074;49.254;6.702;2023-07-13T00:32:55;4.10;;;2.67;;
9950;SDS011;24074;49.254;6.702;2023-07-13T00:35:20;4.30;;;2.80;;
9950;SDS011;24074;49.254;6.702;2023-07-13T00:37:46;2.90;;;2.40;;
9950;SDS011;24074;49.254;6.702;2023-07-13T00:40:12;5.53;;;2.90;;
9950;SDS011;24074;49.254;6.702;2023-07-13T00:42:39;3.73;;;2.57;;
9950;SDS011;24074;49.254;6.702;2023-07-13T00:47:40;3.70;;;2.67;;
9950;SDS011;24074;49.254;6.702;2023-07-13T00:50:09;3.23;;;2.67;;
9950;SDS011;24074;49.254;6.702;2023-07-13T00:52:39;5.37;;;2.40;;
9950;SDS011;24074;49.254;6.702;2023-07-13T00:55:08;3.77;;;2.70;;
9950;SDS011;24074;49.254;6.702;2023-07-13T00:57:36;3.93;;;2.60;;
9950;SDS011;24074;49.254;6.702;2023-07-13T01:00:03;4.10;;;2.83;;
9950;SDS011;24074;49.254;6.702;2023-07-13T01:02:32;4.43;;;2.53;;
9950;SDS011;24074;49.254;6.702;2023-07-13T01:04:58;4.23;;;2.93;;
9950;SDS011;24074;49.254;6.702;2023-07-13T01:07:24;4.40;;;2.80;;
9950;SDS011;24074;49.254;6.702;2023-07-13T01:09:50;5.83;;;2.30;;
9950;SDS011;24074;49.254;6.702;2023-07-13T01:12:15;6.27;;;2.67;;
9950;SDS011;24074;49.254;6.702;2023-07-13T01:14:41;4.93;;;2.90;;
9950;SDS011;24074;49.254;6.702;2023-07-13T01:17:08;6.40;;;2.60;;
9950;SDS011;24074;49.254;6.702;2023-07-13T01:19:36;5.03;;;2.70;;
9950;SDS011;24074;49.254;6.702;2023-07-13T01:22:04;4.00;;;2.60;;
9950;SDS011;24074;49.254;6.702;2023-07-13T01:24:34;4.97;;;2.87;;
9950;SDS011;24074;49.254;6.702;2023-07-13T01:27:01;5.23;;;3.20;;
9950;SDS011;24074;49.254;6.702;2023-07-13T01:29:27;4.13;;;2.50;;
9950;SDS011;24074;49.254;6.702;2023-07-13T01:31:53;4.37;;;2.87;;
9950;SDS011;24074;49.254;6.702;2023-07-13T01:34:18;2.70;;;2.40;;
9950;SDS011;24074;49.254;6.702;2023-07-13T01:36:44;3.60;;;2.50;;
9950;SDS011;24074;49.254;6.702;2023-07-13T01:39:09;4.70;;;2.60;;
9950;SDS011;24074;49.254;6.702;2023-07-13T01:41:35;2.83;;;2.40;;
9950;SDS011;24074;49.254;6.702;2023-07-13T01:44:00;7.27;;;3.10;;
9950;SDS011;24074;49.254;6.702;2023-07-13T01:46:26;6.03;;;2.50;;
9950;SDS011;24074;49.254;6.702;2023-07-13T01:48:52;3.37;;;2.37;;
9950;SDS011;24074;49.254;6.702;2023-07-13T01:51:17;5.73;;;2.53;;
9950;SDS011;24074;49.254;6.702;2023-07-13T01:53:44;4.17;;;2.33;;
9950;SDS011;24074;49.254;6.702;2023-07-13T01:56:10;5.97;;;2.87;;
9950;SDS011;24074;49.254;6.702;2023-07-13T01:58:35;5.43;;;2.63;;
9950;SDS011;24074;49.254;6.702;2023-07-13T02:01:01;4.37;;;2.30;;
9950;SDS011;24074;49.254;6.702;2023-07-13T02:03:26;3.50;;;2.30;;
9950;SDS011;24074;49.254;6.702;2023-07-13T02:05:52;2.80;;;2.37;;
9950;SDS011;24074;49.254;6.702;2023-07-13T02:08:17;2.37;;;2.17;;
9950;SDS011;24074;49.254;6.702;2023-07-13T02:10:43;4.63;;;2.40;;
9950;SDS011;24074;49.254;6.702;2023-07-13T02:13:08;3.97;;;2.40;;
9950;SDS011;24074;49.254;6.702;2023-07-13T02:15:34;2.53;;;2.33;;
9950;SDS011;24074;49.254;6.702;2023-07-13T02:18:04;5.40;;;2.53;;
9950;SDS011;24074;49.254;6.702;2023-07-13T02:20:29;7.63;;;2.60;;
9950;SDS011;24074;49.254;6.702;2023-07-13T02:22:55;3.43;;;2.27;;
9950;SDS011;24074;49.254;6.702;2023-07-13T02:25:21;3.07;;;2.30;;
9950;SDS011;24074;49.254;6.702;2023-07-13T02:27:46;3.97;;;2.30;;
9950;SDS011;24074;49.254;6.702;2023-07-13T02:30:12;2.70;;;2.20;;
9950;SDS011;24074;49.254;6.702;2023-07-13T02:32:40;5.07;;;2.53;;
9950;SDS011;24074;49.254;6.702;2023-07-13T02:35:05;5.07;;;2.73;;
9950;SDS011;24074;49.254;6.702;2023-07-13T02:37:31;4.00;;;2.50;;
9950;SDS011;24074;49.254;6.702;2023-07-13T02:39:57;6.57;;;2.60;;
9950;SDS011;24074;49.254;6.702;2023-07-13T02:42:22;3.77;;;2.50;;
9950;SDS011;24074;49.254;6.702;2023-07-13T02:44:48;3.97;;;2.80;;
9950;SDS011;24074;49.254;6.702;2023-07-13T02:47:15;3.90;;;2.60;;
9950;SDS011;24074;49.254;6.702;2023-07-13T02:49:41;3.60;;;2.93;;
9950;SDS011;24074;49.254;6.702;2023-07-13T02:52:07;3.83;;;2.60;;
9950;SDS011;24074;49.254;6.702;2023-07-13T02:54:32;4.33;;;2.60;;
9950;SDS011;24074;49.254;6.702;2023-07-13T02:56:58;5.93;;;2.60;;
9950;SDS011;24074;49.254;6.702;2023-07-13T02:59:23;3.37;;;2.47;;
9950;SDS011;24074;49.254;6.702;2023-07-13T03:01:49;4.50;;;2.30;;
9950;SDS011;24074;49.254;6.702;2023-07-13T03:04:14;5.77;;;2.30;;
9950;SDS011;24074;49.254;6.702;2023-07-13T03:06:44;3.53;;;2.77;;
9950;SDS011;24074;49.254;6.702;2023-07-13T03:09:10;3.73;;;2.70;;
9950;SDS011;24074;49.254;6.702;2023-07-13T03:11:37;2.57;;;2.37;;
9950;SDS011;24074;49.254;6.702;2023-07-13T03:14:03;4.83;;;2.40;;
9950;SDS011;24074;49.254;6.702;2023-07-13T03:16:29;2.77;;;2.37;;
9950;SDS011;24074;49.254;6.702;2023-07-13T03:18:55;2.40;;;2.20;;
9950;SDS011;24074;49.254;6.702;2023-07-13T03:21:20;2.50;;;2.23;;
9950;SDS011;24074;49.254;6.702;2023-07-13T03:23:46;2.87;;;2.50;;
9950;SDS011;24074;49.254;6.702;2023-07-13T03:26:13;3.30;;;2.33;;
9950;SDS011;24074;49.254;6.702;2023-07-13T03:28:41;3.40;;;2.50;;
9950;SDS011;24074;49.254;6.702;2023-07-13T03:31:08;3.33;;;2.27;;
9950;SDS011;24074;49.254;6.702;2023-07-13T03:33:36;2.23;;;2.00;;
9950;SDS011;24074;49.254;6.702;2023-07-13T03:36:02;5.30;;;2.20;;
9950;SDS011;24074;49.254;6.702;2023-07-13T03:38:29;3.70;;;2.30;;
9950;SDS011;24074;49.254;6.702;2023-07-13T03:40:54;5.73;;;2.30;;
9950;SDS011;24074;49.254;6.702;2023-07-13T03:43:20;3.73;;;2.40;;
9950;SDS011;24074;49.254;6.702;2023-07-13T03:45:46;2.77;;;2.50;;
9950;SDS011;24074;49.254;6.702;2023-07-13T03:48:11;3.50;;;2.30;;
9950;SDS011;24074;49.254;6.702;2023-07-13T03:50:37;2.60;;;2.10;;
9950;SDS011;24074;49.254;6.702;2023-07-13T03:53:03;2.97;;;2.60;;
9950;SDS011;24074;49.254;6.702;2023-07-13T03:55:29;3.20;;;2.20;;
9950;SDS011;24074;49.254;6.702;2023-07-13T03:58:23;3.50;;;2.50;;
9950;SDS011;24074;49.254;6.702;2023-07-13T04:00:50;3.37;;;2.30;;
9950;SDS011;24074;49.254;6.702;2023-07-13T04:03:15;4.67;;;2.30;;
9950;SDS011;24074;49.254;6.702;2023-07-13T04:05:42;3.00;;;2.40;;
9950;SDS011;24074;49.254;6.702;2023-07-13T04:08:07;2.67;;;2.20;;
9950;SDS011;24074;49.254;6.702;2023-07-13T04:10:33;4.20;;;2.50;;
9950;SDS011;24074;49.254;6.702;2023-07-13T04:12:59;3.47;;;2.13;;
9950;SDS011;24074;49.254;6.702;2023-07-13T04:15:25;3.43;;;2.17;;
9950;SDS011;24074;49.254;6.702;2023-07-13T04:17:51;3.80;;;2.03;;
9950;SDS011;24074;49.254;6.702;2023-07-13T04:20:16;3.97;;;2.20;;
9950;SDS011;24074;49.254;6.702;2023-07-13T04:22:42;3.70;;;2.20;;
9950;SDS011;24074;49.254;6.702;2023-07-13T04:25:07;3.53;;;2.30;;
9950;SDS011;24074;49.254;6.702;2023-07-13T04:27:33;3.20;;;2.00;;
9950;SDS011;24074;49.254;6.702;2023-07-13T04:29:59;2.70;;;2.13;;
9950;SDS011;24074;49.254;6.702;2023-07-13T04:32:24;3.00;;;2.00;;
9950;SDS011;24074;49.254;6.702;2023-07-13T04:34:50;3.67;;;2.27;;
9950;SDS011;24074;49.254;6.702;2023-07-13T04:37:18;4.00;;;2.23;;
9950;SDS011;24074;49.254;6.702;2023-07-13T04:39:43;4.30;;;2.33;;
9950;SDS011;24074;49.254;6.702;2023-07-13T04:42:09;4.47;;;2.30;;
9950;SDS011;24074;49.254;6.702;2023-07-13T04:44:34;4.27;;;2.20;;
9950;SDS011;24074;49.254;6.702;2023-07-13T04:47:00;3.43;;;2.20;;
9950;SDS011;24074;49.254;6.702;2023-07-13T04:49:25;3.40;;;2.20;;
9950;SDS011;24074;49.254;6.702;2023-07-13T04:51:51;4.77;;;2.30;;
9950;SDS011;24074;49.254;6.702;2023-07-13T04:54:16;3.27;;;2.27;;
9950;SDS011;24074;49.254;6.702;2023-07-13T04:56:42;2.80;;;2.37;;
9950;SDS011;24074;49.254;6.702;2023-07-13T04:59:08;4.03;;;2.40;;
9950;SDS011;24074;49.254;6.702;2023-07-13T05:01:33;5.63;;;2.20;;
9950;SDS011;24074;49.254;6.702;2023-07-13T05:03:59;4.23;;;2.00;;
9950;SDS011;24074;49.254;6.702;2023-07-13T05:06:25;4.33;;;2.47;;
9950;SDS011;24074;49.254;6.702;2023-07-13T05:08:50;4.13;;;2.20;;
9950;SDS011;24074;49.254;6.702;2023-07-13T05:11:17;3.70;;;2.17;;
9950;SDS011;24074;49.254;6.702;2023-07-13T05:13:43;2.83;;;1.90;;
9950;SDS011;24074;49.254;6.702;2023-07-13T05:16:09;3.20;;;2.10;;
9950;SDS011;24074;49.254;6.702;2023-07-13T05:18:34;4.60;;;2.27;;
9950;SDS011;24074;49.254;6.702;2023-07-13T05:21:05;3.50;;;1.83;;
9950;SDS011;24074;49.254;6.702;2023-07-13T05:23:32;2.27;;;1.90;;
9950;SDS011;24074;49.254;6.702;2023-07-13T05:26:02;4.20;;;2.10;;
9950;SDS011;24074;49.254;6.702;2023-07-13T05:28:29;3.37;;;2.03;;
9950;SDS011;24074;49.254;6.702;2023-07-13T05:30:56;3.93;;;2.20;;
9950;SDS011;24074;49.254;6.702;2023-07-13T05:33:22;4.63;;;1.87;;
9950;SDS011;24074;49.254;6.702;2023-07-13T05:35:48;4.27;;;2.00;;
9950;SDS011;24074;49.254;6.702;2023-07-13T05:38:13;3.37;;;1.97;;
9950;SDS011;24074;49.254;6.702;2023-07-13T05:40:39;2.57;;;2.20;;
9950;SDS011;24074;49.254;6.702;2023-07-13T05:43:07;3.30;;;1.73;;
9950;SDS011;24074;49.254;6.702;2023-07-13T05:45:32;3.00;;;2.20;;
9950;SDS011;24074;49.254;6.702;2023-07-13T05:47:58;3.40;;;1.90;;
9950;SDS011;24074;49.254;6.702;2023-07-13T05:50:23;4.10;;;1.60;;
9950;SDS011;24074;49.254;6.702;2023-07-13T05:52:49;4.47;;;1.80;;
9950;SDS011;24074;49.254;6.702;2023-07-13T05:55:14;2.13;;;1.63;;
9950;SDS011;24074;49.254;6.702;2023-07-13T05:57:40;5.35;;;2.20;;
9950;SDS011;24074;49.254;6.702;2023-07-13T06:00:06;2.47;;;1.52;;
9950;SDS011;24074;49.254;6.702;2023-07-13T06:02:32;4.97;;;1.92;;
9950;SDS011;24074;49.254;6.702;2023-07-13T06:04:57;2.08;;;1.60;;
9950;SDS011;24074;49.254;6.702;2023-07-13T06:07:23;2.42;;;1.58;;
9950;SDS011;24074;49.254;6.702;2023-07-13T06:09:49;4.20;;;1.80;;
9950;SDS011;24074;49.254;6.702;2023-07-13T06:12:15;3.90;;;1.88;;
9950;SDS011;24074;49.254;6.702;2023-07-13T06:14:40;7.95;;;2.00;;
9950;SDS011;24074;49.254;6.702;2023-07-13T06:17:07;3.43;;;1.90;;
9950;SDS011;24074;49.254;6.702;2023-07-13T06:19:33;3.70;;;1.77;;
9950;SDS011;24074;49.254;6.702;2023-07-13T06:21:58;4.93;;;1.73;;
9950;SDS011;24074;49.254;6.702;2023-07-13T06:24:24;4.13;;;1.90;;
9950;SDS011;24074;49.254;6.702;2023-07-13T06:26:50;2.80;;;1.70;;
9950;SDS011;24074;49.254;6.702;2023-07-13T06:29:16;2.67;;;1.40;;
9950;SDS011;24074;49.254;6.702;2023-07-13T06:31:42;2.10;;;1.53;;
9950;SDS011;24074;49.254;6.702;2023-07-13T06:34:07;4.73;;;1.90;;
9950;SDS011;24074;49.254;6.702;2023-07-13T06:36:33;4.40;;;2.00;;
9950;SDS011;24074;49.254;6.702;2023-07-13T06:38:59;7.00;;;1.80;;
9950;SDS011;24074;49.254;6.702;2023-07-13T06:41:24;3.23;;;1.60;;
9950;SDS011;24074;49.254;6.702;2023-07-13T06:43:53;2.20;;;1.50;;
9950;SDS011;24074;49.254;6.702;2023-07-13T06:46:20;4.10;;;1.67;;
9950;SDS011;24074;49.254;6.702;2023-07-13T06:48:47;3.60;;;1.50;;
9950;SDS011;24074;49.254;6.702;2023-07-13T06:51:12;1.97;;;1.60;;
9950;SDS011;24074;49.254;6.702;2023-07-13T06:53:38;3.50;;;1.50;;
9950;SDS011;24074;49.254;6.702;2023-07-13T06:56:03;2.40;;;1.63;;
9950;SDS011;24074;49.254;6.702;2023-07-13T06:58:30;4.43;;;1.42;;
9950;SDS011;24074;49.254;6.702;2023-07-13T07:00:55;5.93;;;1.38;;
9950;SDS011;24074;49.254;6.702;2023-07-13T07:03:21;2.78;;;1.50;;
9950;SDS011;24074;49.254;6.702;2023-07-13T07:05:47;2.97;;;1.60;;
9950;SDS011;24074;49.254;6.702;2023-07-13T07:08:13;4.63;;;1.50;;
9950;SDS011;24074;49.254;6.702;2023-07-13T07:10:38;2.97;;;1.50;;
9950;SDS011;24074;49.254;6.702;2023-07-13T07:13:05;4.25;;;1.55;;
9950;SDS011;24074;49.254;6.702;2023-07-13T07:15:30;3.53;;;1.33;;
9950;SDS011;24074;49.254;6.702;2023-07-13T07:17:56;4.25;;;1.27;;
9950;SDS011;24074;49.254;6.702;2023-07-13T07:20:21;3.08;;;1.42;;
9950;SDS011;24074;49.254;6.702;2023-07-13T07:22:47;3.63;;;1.25;;
9950;SDS011;24074;49.254;6.702;2023-07-13T07:25:13;3.03;;;1.40;;
9950;SDS011;24074;49.254;6.702;2023-07-13T07:27:39;3.05;;;1.20;;
9950;SDS011;24074;49.254;6.702;2023-07-13T07:30:05;4.43;;;1.30;;
9950;SDS011;24074;49.254;6.702;2023-07-13T07:32:31;2.35;;;1.20;;
9950;SDS011;24074;49.254;6.702;2023-07-13T07:34:57;2.65;;;1.30;;
9950;SDS011;24074;49.254;6.702;2023-07-13T07:37:23;3.20;;;1.55;;
9950;SDS011;24074;49.254;6.702;2023-07-13T07:39:49;3.35;;;1.20;;
9950;SDS011;24074;49.254;6.702;2023-07-13T07:42:15;2.65;;;1.10;;
9950;SDS011;24074;49.254;6.702;2023-07-13T07:44:41;2.17;;;1.25;;
9950;SDS011;24074;49.254;6.702;2023-07-13T07:47:07;2.70;;;1.17;;
9950;SDS011;24074;49.254;6.702;2023-07-13T07:49:34;4.32;;;1.50;;
9950;SDS011;24074;49.254;6.702;2023-07-13T07:52:00;3.63;;;1.45;;
9950;SDS011;24074;49.254;6.702;2023-07-13T07:54:25;3.45;;;1.30;;
9950;SDS011;24074;49.254;6.702;2023-07-13T07:56:51;2.45;;;1.30;;
9950;SDS011;24074;49.254;6.702;2023-07-13T07:59:17;2.55;;;1.20;;
9950;SDS011;24074;49.254;6.702;2023-07-13T08:01:43;2.53;;;1.10;;
9950;SDS011;24074;49.254;6.702;2023-07-13T08:04:11;3.90;;;1.20;;
9950;SDS011;24074;49.254;6.702;2023-07-13T08:06:37;1.75;;;1.25;;
9950;SDS011;24074;49.254;6.702;2023-07-13T08:09:02;3.42;;;1.38;;
9950;SDS011;24074;49.254;6.702;2023-07-13T08:11:29;3.72;;;1.42;;
9950;SDS011;24074;49.254;6.702;2023-07-13T08:13:55;3.35;;;1.40;;
9950;SDS011;24074;49.254;6.702;2023-07-13T08:16:21;2.70;;;1.40;;
9950;SDS011;24074;49.254;6.702;2023-07-13T08:18:47;2.80;;;1.30;;
9950;SDS011;24074;49.254;6.702;2023-07-13T08:21:13;3.70;;;1.33;;
9950;SDS011;24074;49.254;6.702;2023-07-13T08:23:39;3.08;;;1.20;;
9950;SDS011;24074;49.254;6.702;2023-07-13T08:26:04;1.83;;;1.30;;
9950;SDS011;24074;49.254;6.702;2023-07-13T08:28:30;2.63;;;1.30;;
9950;SDS011;24074;49.254;6.702;2023-07-13T08:31:01;3.97;;;1.60;;
9950;SDS011;24074;49.254;6.702;2023-07-13T08:33:30;2.20;;;1.30;;
9950;SDS011;24074;49.254;6.702;2023-07-13T08:35:56;4.43;;;1.52;;
9950;SDS011;24074;49.254;6.702;2023-07-13T08:38:22;2.70;;;1.30;;
9950;SDS011;24074;49.254;6.702;2023-07-13T08:40:54;3.55;;;1.52;;
9950;SDS011;24074;49.254;6.702;2023-07-13T08:43:33;3.55;;;1.30;;
9950;SDS011;24074;49.254;6.702;2023-07-13T08:48:53;3.05;;;1.45;;
9950;SDS011;24074;49.254;6.702;2023-07-13T08:51:39;3.83;;;1.35;;
9950;SDS011;24074;49.254;6.702;2023-07-13T08:54:19;2.55;;;1.40;;
9950;SDS011;24074;49.254;6.702;2023-07-13T08:56:55;4.68;;;1.40;;
9950;SDS011;24074;49.254;6.702;2023-07-13T08:59:24;3.33;;;1.30;;
9950;SDS011;24074;49.254;6.702;2023-07-13T09:04:33;3.00;;;1.52;;
9950;SDS011;24074;49.254;6.702;2023-07-13T09:07:20;3.70;;;1.45;;
9950;SDS011;24074;49.254;6.702;2023-07-13T09:10:15;2.88;;;1.45;;
9950;SDS011;24074;49.254;6.702;2023-07-13T09:15:31;1.77;;;1.30;;
9950;SDS011;24074;49.254;6.702;2023-07-13T09:18:06;2.67;;;1.48;;
9950;SDS011;24074;49.254;6.702;2023-07-13T09:20:56;2.95;;;1.55;;
9950;SDS011;24074;49.254;6.702;2023-07-13T09:23:28;3.80;;;1.30;;
9950;SDS011;24074;49.254;6.702;2023-07-13T09:26:06;2.67;;;1.40;;
9950;SDS011;24074;49.254;6.702;2023-07-13T09:28:47;3.20;;;1.58;;
9950;SDS011;24074;49.254;6.702;2023-07-13T09:33:55;4.05;;;1.40;;
9950;SDS011;24074;49.254;6.702;2023-07-13T09:36:25;3.20;;;1.40;;
9950;SDS011;24074;49.254;6.702;2023-07-13T09:39:35;3.13;;;1.27;;
9950;SDS011;24074;49.254;6.702;2023-07-13T09:42:14;3.13;;;1.40;;
9950;SDS011;24074;49.254;6.702;2023-07-13T09:44:52;3.72;;;1.40;;
9950;SDS011;24074;49.254;6.702;2023-07-13T09:49:58;3.28;;;1.50;;
9950;SDS011;24074;49.254;6.702;2023-07-13T09:52:26;2.45;;;1.50;;
9950;SDS011;24074;49.254;6.702;2023-07-13T09:54:54;3.50;;;1.40;;
9950;SDS011;24074;49.254;6.702;2023-07-13T09:57:24;2.25;;;1.15;;
9950;SDS011;24074;49.254;6.702;2023-07-13T09:59:52;2.85;;;1.27;;
9950;SDS011;24074;49.254;6.702;2023-07-13T10:04:55;3.00;;;1.45;;
9950;SDS011;24074;49.254;6.702;2023-07-13T10:07:23;5.32;;;1.58;;
9950;SDS011;24074;49.254;6.702;2023-07-13T10:09:56;3.22;;;1.42;;
9950;SDS011;24074;49.254;6.702;2023-07-13T10:12:23;6.57;;;1.50;;
9950;SDS011;24074;49.254;6.702;2023-07-13T10:14:54;2.45;;;1.50;;
9950;SDS011;24074;49.254;6.702;2023-07-13T10:17:26;5.50;;;1.20;;
9950;SDS011;24074;49.254;6.702;2023-07-13T10:19:55;4.50;;;1.48;;
9950;SDS011;24074;49.254;6.702;2023-07-13T10:25:17;2.53;;;1.48;;
9950;SDS011;24074;49.254;6.702;2023-07-13T10:27:50;2.90;;;1.42;;
9950;SDS011;24074;49.254;6.702;2023-07-13T10:32:47;6.20;;;1.52;;
9950;SDS011;24074;49.254;6.702;2023-07-13T10:35:15;4.10;;;1.25;;
9950;SDS011;24074;49.254;6.702;2023-07-13T10:37:51;2.58;;;1.23;;
9950;SDS011;24074;49.254;6.702;2023-07-13T10:43:16;2.85;;;1.33;;
9950;SDS011;24074;49.254;6.702;2023-07-13T10:45:48;4.13;;;1.13;;
9950;SDS011;24074;49.254;6.702;2023-07-13T10:48:15;2.85;;;1.20;;
9950;SDS011;24074;49.254;6.702;2023-07-13T10:50:42;2.30;;;1.20;;
9950;SDS011;24074;49.254;6.702;2023-07-13T10:53:29;4.63;;;1.33;;
9950;SDS011;24074;49.254;6.702;2023-07-13T10:56:01;3.83;;;1.30;;
9950;SDS011;24074;49.254;6.702;2023-07-13T10:58:41;3.90;;;1.55;;
9950;SDS011;24074;49.254;6.702;2023-07-13T11:01:12;2.88;;;1.60;;
9950;SDS011;24074;49.254;6.702;2023-07-13T11:03:49;2.17;;;1.13;;
9950;SDS011;24074;49.254;6.702;2023-07-13T11:13:55;3.45;;;1.23;;
9950;SDS011;24074;49.254;6.702;2023-07-13T11:18:50;1.98;;;1.25;;
9950;SDS011;24074;49.254;6.702;2023-07-13T11:21:36;2.08;;;1.13;;
9950;SDS011;24074;49.254;6.702;2023-07-13T11:27:41;3.40;;;1.63;;
9950;SDS011;24074;49.254;6.702;2023-07-13T11:33:22;3.03;;;1.20;;
9950;SDS011;24074;49.254;6.702;2023-07-13T11:36:19;2.38;;;1.38;;
9950;SDS011;24074;49.254;6.702;2023-07-13T11:41:22;3.90;;;1.40;;
9950;SDS011;24074;49.254;6.702;2023-07-13T11:44:01;3.80;;;1.38;;
9950;SDS011;24074;49.254;6.702;2023-07-13T11:46:37;3.35;;;1.30;;
9950;SDS011;24074;49.254;6.702;2023-07-13T11:49:04;1.75;;;1.40;;
9950;SDS011;24074;49.254;6.702;2023-07-13T11:51:32;3.28;;;1.50;;
9950;SDS011;24074;49.254;6.702;2023-07-13T11:54:23;3.38;;;1.30;;
9950;SDS011;24074;49.254;6.702;2023-07-13T11:56:57;3.47;;;1.38;;
9950;SDS011;24074;49.254;6.702;2023-07-13T11:59:26;4.05;;;1.50;;
9950;SDS011;24074;49.254;6.702;2023-07-13T12:01:54;2.47;;;1.38;;
9950;SDS011;24074;49.254;6.702;2023-07-13T12:04:24;3.03;;;1.50;;
9950;SDS011;24074;49.254;6.702;2023-07-13T12:06:57;3.28;;;1.30;;
9950;SDS011;24074;49.254;6.702;2023-07-13T12:09:28;2.17;;;1.25;;
9950;SDS011;24074;49.254;6.702;2023-07-13T12:11:56;2.53;;;1.30;;
9950;SDS011;24074;49.254;6.702;2023-07-13T12:14:23;2.67;;;1.30;;
9950;SDS011;24074;49.254;6.702;2023-07-13T12:16:50;2.00;;;1.40;;
9950;SDS011;24074;49.254;6.702;2023-07-13T12:19:20;1.85;;;1.23;;
9950;SDS011;24074;49.254;6.702;2023-07-13T12:21:47;4.07;;;1.55;;
9950;SDS011;24074;49.254;6.702;2023-07-13T12:24:15;2.78;;;1.40;;
9950;SDS011;24074;49.254;6.702;2023-07-13T12:26:42;2.08;;;1.23;;
9950;SDS011;24074;49.254;6.702;2023-07-13T12:29:11;2.53;;;1.45;;
9950;SDS011;24074;49.254;6.702;2023-07-13T12:31:42;4.00;;;1.40;;
9950;SDS011;24074;49.254;6.702;2023-07-13T12:34:13;2.97;;;1.63;;
9950;SDS011;24074;49.254;6.702;2023-07-13T12:36:45;3.25;;;1.40;;
9950;SDS011;24074;49.254;6.702;2023-07-13T12:41:47;4.25;;;1.33;;
9950;SDS011;24074;49.254;6.702;2023-07-13T12:44:15;3.65;;;1.30;;
9950;SDS011;24074;49.254;6.702;2023-07-13T12:46:53;2.25;;;1.23;;
9950;SDS011;24074;49.254;6.702;2023-07-13T12:49:31;2.05;;;1.38;;
9950;SDS011;24074;49.254;6.702;2023-07-13T12:52:01;3.65;;;1.40;;
9950;SDS011;24074;49.254;6.702;2023-07-13T12:54:28;3.78;;;1.50;;
9950;SDS011;24074;49.254;6.702;2023-07-13T12:56:55;3.80;;;1.40;;
9950;SDS011;24074;49.254;6.702;2023-07-13T12:59:23;2.03;;;1.30;;
9950;SDS011;24074;49.254;6.702;2023-07-13T13:01:54;3.00;;;1.45;;
9950;SDS011;24074;49.254;6.702;2023-07-13T13:04:20;3.00;;;1.60;;
9950;SDS011;24074;49.254;6.702;2023-07-13T13:06:46;2.55;;;1.30;;
9950;SDS011;24074;49.254;6.702;2023-07-13T13:09:13;2.63;;;1.10;;
9950;SDS011;24074;49.254;6.702;2023-07-13T13:11:40;2.08;;;1.20;;
9950;SDS011;24074;49.254;6.702;2023-07-13T13:14:06;2.22;;;1.30;;
9950;SDS011;24074;49.254;6.702;2023-07-13T13:16:33;3.40;;;1.20;;
9950;SDS011;24074;49.254;6.702;2023-07-13T13:19:10;3.08;;;1.48;;
9950;SDS011;24074;49.254;6.702;2023-07-13T13:21:38;2.47;;;1.27;;
9950;SDS011;24074;49.254;6.702;2023-07-13T13:24:10;3.88;;;1.73;;
9950;SDS011;24074;49.254;6.702;2023-07-13T13:26:42;3.22;;;1.30;;
9950;SDS011;24074;49.254;6.702;2023-07-13T13:29:17;3.22;;;1.60;;
9950;SDS011;24074;49.254;6.702;2023-07-13T13:31:49;3.15;;;1.30;;
9950;SDS011;24074;49.254;6.702;2023-07-13T13:34:17;1.77;;;1.27;;
9950;SDS011;24074;49.254;6.702;2023-07-13T13:36:43;1.77;;;1.20;;
9950;SDS011;24074;49.254;6.702;2023-07-13T13:39:18;2.72;;;1.20;;
9950;SDS011;24074;49.254;6.702;2023-07-13T13:41:46;2.75;;;1.20;;
9950;SDS011;24074;49.254;6.702;2023-07-13T13:44:14;1.42;;;1.00;;
9950;SDS011;24074;49.254;6.702;2023-07-13T13:46:41;2.35;;;1.30;;
9950;SDS011;24074;49.254;6.702;2023-07-13T13:49:15;3.30;;;1.30;;
9950;SDS011;24074;49.254;6.702;2023-07-13T13:51:42;3.58;;;1.40;;
9950;SDS011;24074;49.254;6.702;2023-07-13T13:54:18;3.53;;;1.30;;
9950;SDS011;24074;49.254;6.702;2023-07-13T13:56:46;3.03;;;1.38;;
9950;SDS011;24074;49.254;6.702;2023-07-13T13:59:13;3.78;;;1.20;;
9950;SDS011;24074;49.254;6.702;2023-07-13T14:01:39;2.53;;;1.60;;
9950;SDS011;24074;49.254;6.702;2023-07-13T14:04:08;2.97;;;1.20;;
9950;SDS011;24074;49.254;6.702;2023-07-13T14:06:46;1.58;;;1.13;;
9950;SDS011;24074;49.254;6.702;2023-07-13T14:09:12;3.42;;;1.45;;
9950;SDS011;24074;49.254;6.702;2023-07-13T14:11:40;2.40;;;1.23;;
9950;SDS011;24074;49.254;6.702;2023-07-13T14:14:17;2.60;;;1.30;;
9950;SDS011;24074;49.254;6.702;2023-07-13T14:16:45;2.67;;;1.17;;
9950;SDS011;24074;49.254;6.702;2023-07-13T14:19:17;4.65;;;1.58;;
9950;SDS011;24074;49.254;6.702;2023-07-13T14:21:43;1.80;;;1.20;;
9950;SDS011;24074;49.254;6.702;2023-07-13T14:24:09;4.00;;;1.20;;
9950;SDS011;24074;49.254;6.702;2023-07-13T14:26:37;2.60;;;1.40;;
9950;SDS011;24074;49.254;6.702;2023-07-13T14:29:05;3.25;;;1.40;;
9950;SDS011;24074;49.254;6.702;2023-07-13T14:31:39;2.58;;;1.23;;
9950;SDS011;24074;49.254;6.702;2023-07-13T14:34:05;3.38;;;1.45;;
9950;SDS011;24074;49.254;6.702;2023-07-13T14:36:31;1.70;;;1.27;;
9950;SDS011;24074;49.254;6.702;2023-07-13T14:39:00;2.20;;;1.10;;
9950;SDS011;24074;49.254;6.702;2023-07-13T14:41:36;3.65;;;1.05;;
9950;SDS011;24074;49.254;6.702;2023-07-13T14:44:04;2.15;;;1.02;;
9950;SDS011;24074;49.254;6.702;2023-07-13T14:46:36;1.88;;;1.25;;
9950;SDS011;24074;49.254;6.702;2023-07-13T14:49:06;3.05;;;1.40;;
9950;SDS011;24074;49.254;6.702;2023-07-13T14:51:35;4.97;;;1.38;;
9950;SDS011;24074;49.254;6.702;2023-07-13T14:54:02;3.92;;;1.50;;
9950;SDS011;24074;49.254;6.702;2023-07-13T14:56:29;4.45;;;1.45;;
9950;SDS011;24074;49.254;6.702;2023-07-13T14:58:55;1.95;;;1.20;;
9950;SDS011;24074;49.254;6.702;2023-07-13T15:01:20;3.80;;;1.50;;
9950;SDS011;24074;49.254;6.702;2023-07-13T15:03:48;3.25;;;1.40;;
9950;SDS011;24074;49.254;6.702;2023-07-13T15:06:15;3.75;;;1.55;;
9950;SDS011;24074;49.254;6.702;2023-07-13T15:08:41;5.25;;;1.83;;
9950;SDS011;24074;49.254;6.702;2023-07-13T15:11:07;4.57;;;1.30;;
9950;SDS011;24074;49.254;6.702;2023-07-13T15:13:36;2.47;;;1.42;;
9950;SDS011;24074;49.254;6.702;2023-07-13T15:16:02;1.80;;;1.40;;
9950;SDS011;24074;49.254;6.702;2023-07-13T15:18:29;4.47;;;1.25;;
9950;SDS011;24074;49.254;6.702;2023-07-13T15:20:55;2.05;;;1.30;;
9950;SDS011;24074;49.254;6.702;2023-07-13T15:23:25;2.55;;;1.45;;
9950;SDS011;24074;49.254;6.702;2023-07-13T15:25:51;3.25;;;1.27;;
9950;SDS011;24074;49.254;6.702;2023-07-13T15:28:17;1.83;;;1.20;;
9950;SDS011;24074;49.254;6.702;2023-07-13T15:30:46;2.67;;;2.20;;
9950;SDS011;24074;49.254;6.702;2023-07-13T15:33:14;3.47;;;1.50;;
9950;SDS011;24074;49.254;6.702;2023-07-13T15:35:44;3.28;;;1.20;;
9950;SDS011;24074;49.254;6.702;2023-07-13T15:38:24;4.18;;;1.40;;
9950;SDS011;24074;49.254;6.702;2023-07-13T15:40:55;3.03;;;1.33;;
9950;SDS011;24074;49.254;6.702;2023-07-13T15:43:21;3.17;;;1.30;;
9950;SDS011;24074;49.254;6.702;2023-07-13T15:45:48;3.47;;;1.48;;
9950;SDS011;24074;49.254;6.702;2023-07-13T15:48:16;4.40;;;1.50;;
9950;SDS011;24074;49.254;6.702;2023-07-13T15:50:47;3.83;;;1.70;;
9950;SDS011;24074;49.254;6.702;2023-07-13T15:53:25;5.25;;;1.70;;
9950;SDS011;24074;49.254;6.702;2023-07-13T15:55:53;3.80;;;1.33;;